This is the latest recevied weather packets stored in our database for station/object DH0DM-13. If no packets are shown the sender has not sent any weather packets the latest 10 day(s).
| Time | Temp. | Humidity | Pressure | Rain* | Wind** | Luminosity | Snow |
|---|---|---|---|---|---|---|---|
| 1777626879 | 18.33° C | 40% | 1002.8 hPa | 0 mm | 1.79 m/s, 66° | - | - |
| 1777626278 | 18.33° C | 42% | 1003 hPa | 0 mm | 2.24 m/s, 246° | - | - |
| 1777625677 | 17.78° C | 40% | 1002.8 hPa | 0 mm | 0.45 m/s, 65° | - | - |
| 1777625076 | 17.78° C | 42% | 1003 hPa | 0 mm | 3.13 m/s, 327° | - | - |
| 1777624475 | 17.78° C | 44% | 1002.9 hPa | 0 mm | 1.34 m/s, 190° | - | - |
| 1777623875 | 16.67° C | 48% | 1003 hPa | 0 mm | 4.02 m/s, 193° | - | - |
| 1777623274 | 16.11° C | 48% | 1003 hPa | 0 mm | 6.26 m/s, 200° | - | - |
| 1777622673 | 16.11° C | 47% | 1002.9 hPa | 0 mm | 1.79 m/s, 193° | - | - |
| 1777622072 | 16.67° C | 47% | 1003 hPa | 0 mm | 0.89 m/s, 153° | - | - |
| 1777621471 | 15.56° C | 48% | 1003 hPa | 0 mm | 1.34 m/s, 156° | - | - |
| 1777620870 | 15.56° C | 49% | 1002.9 hPa | 0 mm | 0.89 m/s, 185° | - | - |
| 1777620269 | 15.56° C | 48% | 1002.9 hPa | 0 mm | 0 m/s | - | - |
| 1777619668 | 15° C | 50% | 1002.9 hPa | 0 mm | 0.45 m/s, 182° | - | - |
| 1777619067 | 14.44° C | 51% | 1003 hPa | 0 mm | 0 m/s | - | - |
| 1777618467 | 14.44° C | 52% | 1003.1 hPa | 0 mm | 0.45 m/s, 177° | - | - |
| 1777617866 | 14.44° C | 55% | 1002.9 hPa | 0 mm | 0.45 m/s, 171° | - | - |
| 1777617265 | 13.33° C | 57% | 1002.8 hPa | 0 mm | 0.45 m/s, 170° | - | - |
| 1777616664 | 13.33° C | 54% | 1002.9 hPa | 0 mm | 0.45 m/s, 171° | - | - |
| 1777616063 | 13.33° C | 56% | 1003 hPa | 0 mm | 0 m/s | - | - |
| 1777615462 | 12.22° C | 58% | 1002.9 hPa | 0 mm | 0 m/s | - | - |
| 1777614861 | 11.11° C | 63% | 1003 hPa | 0 mm | 0 m/s | - | - |
| 1777614261 | 10.56° C | 65% | 1002.9 hPa | 0 mm | 0 m/s | - | - |
| 1777613660 | 8.89° C | 71% | 1003 hPa | 0 mm | 0 m/s | - | - |
| 1777613059 | 8.89° C | 71% | 1002.8 hPa | 0 mm | 2.24 m/s, 157° | - | - |
| 1777612458 | 7.78° C | 75% | 1003 hPa | 0 mm | 0.89 m/s, 164° | - | - |
* Rain since midnight (hover to see other rain measurements)
** Current wind speed in m/s (hover to see current wind gust speed)